sensor_id;sensor_type;location;lat;lon;timestamp;pressure;altitude;pressure_sealevel;temperature;humidity
21449;BME280;10885;52.830;13.788;2022-11-21T06:32:56;100014.34;;;-2.21;74.38
21449;BME280;10885;52.830;13.788;2022-11-21T06:38:17;100012.59;;;-2.22;74.86
21449;BME280;10885;52.830;13.788;2022-11-21T06:43:39;100024.28;;;-2.14;74.86
21449;BME280;10885;52.830;13.788;2022-11-21T06:49:01;100020.16;;;-2.05;75.00
21449;BME280;10885;52.830;13.788;2022-11-21T06:54:22;100021.63;;;-1.98;75.54
21449;BME280;10885;52.830;13.788;2022-11-21T06:59:42;100036.44;;;-1.92;75.61
21449;BME280;10885;52.830;13.788;2022-11-21T07:05:03;100040.25;;;-1.87;75.61
21449;BME280;10885;52.830;13.788;2022-11-21T07:10:24;100034.22;;;-1.81;75.38
21449;BME280;10885;52.830;13.788;2022-11-21T07:15:46;100030.50;;;-1.75;75.29
21449;BME280;10885;52.830;13.788;2022-11-21T07:21:08;100032.00;;;-1.69;75.92
21449;BME280;10885;52.830;13.788;2022-11-21T07:26:29;100029.94;;;-1.64;76.00
21449;BME280;10885;52.830;13.788;2022-11-21T07:31:50;100042.66;;;-1.63;75.93
21449;BME280;10885;52.830;13.788;2022-11-21T07:37:11;100043.84;;;-1.59;75.55
21449;BME280;10885;52.830;13.788;2022-11-21T07:42:32;100060.06;;;-1.55;75.84
21449;BME280;10885;52.830;13.788;2022-11-21T07:48:01;100059.78;;;-1.58;75.75
21449;BME280;10885;52.830;13.788;2022-11-21T07:53:22;100066.16;;;-1.62;75.83
21449;BME280;10885;52.830;13.788;2022-11-21T07:58:43;100063.03;;;-1.60;75.70
21449;BME280;10885;52.830;13.788;2022-11-21T08:04:04;100066.31;;;-1.61;75.90
21449;BME280;10885;52.830;13.788;2022-11-21T08:09:28;100071.31;;;-1.61;75.97
21449;BME280;10885;52.830;13.788;2022-11-21T08:14:49;100080.50;;;-1.61;76.18
21449;BME280;10885;52.830;13.788;2022-11-21T08:20:11;100085.97;;;-1.56;75.72
21449;BME280;10885;52.830;13.788;2022-11-21T17:54:33;100143.41;;;-2.86;75.97
21449;BME280;10885;52.830;13.788;2022-11-21T17:59:56;100148.44;;;-2.86;76.19
21449;BME280;10885;52.830;13.788;2022-11-21T18:05:17;100128.78;;;-2.90;75.90
21449;BME280;10885;52.830;13.788;2022-11-21T18:10:37;100122.31;;;-2.88;76.07
21449;BME280;10885;52.830;13.788;2022-11-21T18:16:09;100120.09;;;-2.85;76.34
21449;BME280;10885;52.830;13.788;2022-11-21T18:21:32;100124.97;;;-2.86;76.46
21449;BME280;10885;52.830;13.788;2022-11-21T18:26:55;100119.53;;;-2.82;76.60
21449;BME280;10885;52.830;13.788;2022-11-21T18:32:15;100123.81;;;-2.81;76.76
21449;BME280;10885;52.830;13.788;2022-11-21T18:37:36;100117.66;;;-2.76;76.30
21449;BME280;10885;52.830;13.788;2022-11-21T18:42:58;100114.41;;;-2.75;76.48
21449;BME280;10885;52.830;13.788;2022-11-21T18:48:19;100117.94;;;-2.73;76.55
21449;BME280;10885;52.830;13.788;2022-11-21T18:53:40;100115.63;;;-2.71;76.72
21449;BME280;10885;52.830;13.788;2022-11-21T18:59:01;100111.78;;;-2.68;77.00
21449;BME280;10885;52.830;13.788;2022-11-21T19:04:25;100111.03;;;-2.67;76.33
21449;BME280;10885;52.830;13.788;2022-11-21T19:09:46;100094.41;;;-2.66;76.42
21449;BME280;10885;52.830;13.788;2022-11-21T19:15:08;100093.81;;;-2.64;76.82
21449;BME280;10885;52.830;13.788;2022-11-21T19:20:29;100071.94;;;-2.65;76.46
21449;BME280;10885;52.830;13.788;2022-11-21T19:25:49;100069.00;;;-2.69;76.47
21449;BME280;10885;52.830;13.788;2022-11-21T19:31:15;100056.56;;;-2.76;76.80
21449;BME280;10885;52.830;13.788;2022-11-21T19:36:36;100053.75;;;-2.80;76.48
21449;BME280;10885;52.830;13.788;2022-11-21T19:41:59;100056.66;;;-2.92;76.98
21449;BME280;10885;52.830;13.788;2022-11-21T19:47:20;100047.38;;;-3.09;77.05
21449;BME280;10885;52.830;13.788;2022-11-21T19:52:40;100034.31;;;-3.23;76.87
21449;BME280;10885;52.830;13.788;2022-11-21T19:58:01;100032.34;;;-3.34;76.72
21449;BME280;10885;52.830;13.788;2022-11-21T20:03:22;100025.50;;;-3.44;76.76
21449;BME280;10885;52.830;13.788;2022-11-21T20:08:47;100023.66;;;-3.53;76.79
21449;BME280;10885;52.830;13.788;2022-11-21T20:14:09;100016.44;;;-3.50;77.01
21449;BME280;10885;52.830;13.788;2022-11-21T20:19:33;100016.00;;;-3.55;76.89
21449;BME280;10885;52.830;13.788;2022-11-21T20:24:54;99996.31;;;-3.68;77.02
21449;BME280;10885;52.830;13.788;2022-11-21T20:30:15;99971.00;;;-3.78;77.00
21449;BME280;10885;52.830;13.788;2022-11-21T20:35:36;99970.09;;;-3.87;76.87
21449;BME280;10885;52.830;13.788;2022-11-21T20:40:58;99949.41;;;-3.93;76.98
21449;BME280;10885;52.830;13.788;2022-11-21T20:46:19;99957.81;;;-3.93;77.11
21449;BME280;10885;52.830;13.788;2022-11-21T20:51:41;99963.28;;;-3.88;77.08
21449;BME280;10885;52.830;13.788;2022-11-21T20:57:25;99974.09;;;-3.81;77.15
21449;BME280;10885;52.830;13.788;2022-11-21T21:02:47;99973.13;;;-3.74;77.26
21449;BME280;10885;52.830;13.788;2022-11-21T21:08:08;99978.03;;;-3.67;77.10
21449;BME280;10885;52.830;13.788;2022-11-21T21:13:29;99968.63;;;-3.61;77.32
21449;BME280;10885;52.830;13.788;2022-11-21T21:18:51;99967.19;;;-3.58;77.03
21449;BME280;10885;52.830;13.788;2022-11-21T21:24:14;99975.28;;;-3.61;76.94
21449;BME280;10885;52.830;13.788;2022-11-21T21:29:35;99979.66;;;-3.67;77.12
21449;BME280;10885;52.830;13.788;2022-11-21T21:34:56;99991.38;;;-3.75;77.16
21449;BME280;10885;52.830;13.788;2022-11-21T21:40:16;99998.97;;;-3.82;77.01
21449;BME280;10885;52.830;13.788;2022-11-21T21:45:37;100004.50;;;-3.93;77.31
21449;BME280;10885;52.830;13.788;2022-11-21T21:51:06;100006.78;;;-4.04;77.13
21449;BME280;10885;52.830;13.788;2022-11-21T21:56:27;100023.50;;;-4.11;77.10
